sensor_id;sensor_type;location;lat;lon;timestamp;P1;durP1;ratioP1;P2;durP2;ratioP2
76396;SDS011;66045;51.622;5.526;2023-02-08T00:01:33;5.10;;;3.15;;
76396;SDS011;66045;51.622;5.526;2023-02-08T00:03:59;4.10;;;3.08;;
76396;SDS011;66045;51.622;5.526;2023-02-08T00:06:24;4.15;;;3.58;;
76396;SDS011;66045;51.622;5.526;2023-02-08T00:08:49;6.35;;;3.70;;
76396;SDS011;66045;51.622;5.526;2023-02-08T00:11:15;5.13;;;2.75;;
76396;SDS011;66045;51.622;5.526;2023-02-08T00:13:40;4.70;;;3.20;;
76396;SDS011;66045;51.622;5.526;2023-02-08T00:16:06;4.25;;;3.10;;
76396;SDS011;66045;51.622;5.526;2023-02-08T00:18:32;5.18;;;3.25;;
76396;SDS011;66045;51.622;5.526;2023-02-08T00:20:57;4.60;;;3.30;;
76396;SDS011;66045;51.622;5.526;2023-02-08T00:23:23;4.40;;;3.25;;
76396;SDS011;66045;51.622;5.526;2023-02-08T00:25:49;4.28;;;2.97;;
76396;SDS011;66045;51.622;5.526;2023-02-08T00:28:15;3.88;;;2.83;;
76396;SDS011;66045;51.622;5.526;2023-02-08T00:30:42;4.45;;;3.28;;
76396;SDS011;66045;51.622;5.526;2023-02-08T00:33:07;4.20;;;3.20;;
76396;SDS011;66045;51.622;5.526;2023-02-08T00:35:33;4.93;;;3.38;;
76396;SDS011;66045;51.622;5.526;2023-02-08T00:37:58;4.60;;;3.15;;
76396;SDS011;66045;51.622;5.526;2023-02-08T00:40:24;4.32;;;3.33;;
76396;SDS011;66045;51.622;5.526;2023-02-08T00:42:50;4.13;;;2.90;;
76396;SDS011;66045;51.622;5.526;2023-02-08T00:45:15;4.95;;;3.22;;
76396;SDS011;66045;51.622;5.526;2023-02-08T00:47:41;4.28;;;3.35;;
76396;SDS011;66045;51.622;5.526;2023-02-08T00:50:06;4.72;;;3.53;;
76396;SDS011;66045;51.622;5.526;2023-02-08T00:52:34;4.82;;;3.50;;
76396;SDS011;66045;51.622;5.526;2023-02-08T00:54:59;6.50;;;3.20;;
76396;SDS011;66045;51.622;5.526;2023-02-08T00:57:24;3.35;;;2.78;;
76396;SDS011;66045;51.622;5.526;2023-02-08T00:59:50;4.57;;;3.22;;
76396;SDS011;66045;51.622;5.526;2023-02-08T01:02:15;4.15;;;3.25;;
76396;SDS011;66045;51.622;5.526;2023-02-08T01:04:41;6.45;;;3.60;;
76396;SDS011;66045;51.622;5.526;2023-02-08T01:07:06;5.07;;;3.53;;
76396;SDS011;66045;51.622;5.526;2023-02-08T01:09:32;4.63;;;3.10;;
76396;SDS011;66045;51.622;5.526;2023-02-08T01:11:58;4.57;;;3.53;;
76396;SDS011;66045;51.622;5.526;2023-02-08T01:14:23;5.85;;;3.30;;
76396;SDS011;66045;51.622;5.526;2023-02-08T01:16:49;4.72;;;3.30;;
76396;SDS011;66045;51.622;5.526;2023-02-08T01:19:17;4.25;;;3.28;;
76396;SDS011;66045;51.622;5.526;2023-02-08T01:21:43;4.28;;;3.10;;
76396;SDS011;66045;51.622;5.526;2023-02-08T01:24:09;4.28;;;3.15;;
76396;SDS011;66045;51.622;5.526;2023-02-08T01:26:36;5.40;;;3.20;;
76396;SDS011;66045;51.622;5.526;2023-02-08T01:29:02;5.07;;;3.13;;
76396;SDS011;66045;51.622;5.526;2023-02-08T01:31:29;4.22;;;3.20;;
76396;SDS011;66045;51.622;5.526;2023-02-08T01:33:57;4.50;;;3.20;;
76396;SDS011;66045;51.622;5.526;2023-02-08T01:36:23;5.40;;;3.28;;
76396;SDS011;66045;51.622;5.526;2023-02-08T01:38:50;4.53;;;3.03;;
76396;SDS011;66045;51.622;5.526;2023-02-08T01:41:16;4.32;;;3.20;;
76396;SDS011;66045;51.622;5.526;2023-02-08T01:43:58;4.03;;;3.13;;
76396;SDS011;66045;51.622;5.526;2023-02-08T01:46:26;4.10;;;3.10;;
76396;SDS011;66045;51.622;5.526;2023-02-08T01:48:52;4.20;;;2.95;;
76396;SDS011;66045;51.622;5.526;2023-02-08T01:51:20;4.82;;;3.05;;
76396;SDS011;66045;51.622;5.526;2023-02-08T01:53:51;4.70;;;3.25;;
76396;SDS011;66045;51.622;5.526;2023-02-08T01:56:24;4.82;;;3.40;;
76396;SDS011;66045;51.622;5.526;2023-02-08T01:58:54;4.68;;;3.40;;
76396;SDS011;66045;51.622;5.526;2023-02-08T02:01:23;6.07;;;3.35;;
76396;SDS011;66045;51.622;5.526;2023-02-08T02:03:51;4.30;;;3.05;;
76396;SDS011;66045;51.622;5.526;2023-02-08T02:06:19;5.38;;;3.45;;
76396;SDS011;66045;51.622;5.526;2023-02-08T02:08:52;4.60;;;3.03;;
76396;SDS011;66045;51.622;5.526;2023-02-08T02:11:25;4.95;;;3.03;;
76396;SDS011;66045;51.622;5.526;2023-02-08T02:13:51;4.57;;;3.20;;
76396;SDS011;66045;51.622;5.526;2023-02-08T02:16:16;4.35;;;3.03;;
76396;SDS011;66045;51.622;5.526;2023-02-08T02:18:42;4.90;;;3.42;;
76396;SDS011;66045;51.622;5.526;2023-02-08T02:21:20;4.32;;;3.00;;
76396;SDS011;66045;51.622;5.526;2023-02-08T02:32:23;4.15;;;3.30;;
76396;SDS011;66045;51.622;5.526;2023-02-08T02:46:21;4.97;;;3.08;;
76396;SDS011;66045;51.622;5.526;2023-02-08T02:51:43;4.50;;;3.13;;
76396;SDS011;66045;51.622;5.526;2023-02-08T02:54:16;3.28;;;2.65;;
76396;SDS011;66045;51.622;5.526;2023-02-08T02:56:47;4.10;;;3.25;;
76396;SDS011;66045;51.622;5.526;2023-02-08T02:59:17;4.60;;;2.70;;
76396;SDS011;66045;51.622;5.526;2023-02-08T03:01:43;4.55;;;3.17;;
76396;SDS011;66045;51.622;5.526;2023-02-08T03:09:37;4.40;;;3.03;;
76396;SDS011;66045;51.622;5.526;2023-02-08T03:14:56;4.40;;;3.35;;
76396;SDS011;66045;51.622;5.526;2023-02-08T03:20:37;4.28;;;3.08;;
76396;SDS011;66045;51.622;5.526;2023-02-08T03:23:08;5.18;;;3.33;;
76396;SDS011;66045;51.622;5.526;2023-02-08T03:28:53;5.13;;;3.08;;
76396;SDS011;66045;51.622;5.526;2023-02-08T03:31:29;4.23;;;3.40;;
76396;SDS011;66045;51.622;5.526;2023-02-08T03:36:52;4.10;;;3.13;;
76396;SDS011;66045;51.622;5.526;2023-02-08T03:39:23;5.22;;;3.33;;
76396;SDS011;66045;51.622;5.526;2023-02-08T03:41:53;4.82;;;3.00;;
76396;SDS011;66045;51.622;5.526;2023-02-08T03:44:32;4.82;;;3.10;;
76396;SDS011;66045;51.622;5.526;2023-02-08T03:47:18;4.47;;;3.40;;
76396;SDS011;66045;51.622;5.526;2023-02-08T03:49:48;3.78;;;3.08;;
76396;SDS011;66045;51.622;5.526;2023-02-08T03:52:16;3.83;;;2.78;;
76396;SDS011;66045;51.622;5.526;2023-02-08T03:54:48;3.80;;;3.13;;
76396;SDS011;66045;51.622;5.526;2023-02-08T04:00:09;5.38;;;3.30;;
76396;SDS011;66045;51.622;5.526;2023-02-08T04:02:40;4.63;;;3.17;;
76396;SDS011;66045;51.622;5.526;2023-02-08T04:05:10;5.13;;;3.40;;
76396;SDS011;66045;51.622;5.526;2023-02-08T04:07:37;4.97;;;3.50;;
76396;SDS011;66045;51.622;5.526;2023-02-08T04:10:02;4.53;;;3.25;;
76396;SDS011;66045;51.622;5.526;2023-02-08T04:12:28;4.72;;;2.97;;
76396;SDS011;66045;51.622;5.526;2023-02-08T04:14:53;4.75;;;3.08;;
76396;SDS011;66045;51.622;5.526;2023-02-08T04:17:19;5.45;;;3.30;;
76396;SDS011;66045;51.622;5.526;2023-02-08T04:19:45;4.47;;;3.10;;
76396;SDS011;66045;51.622;5.526;2023-02-08T04:22:10;3.80;;;2.88;;
76396;SDS011;66045;51.622;5.526;2023-02-08T04:24:36;3.97;;;2.80;;
76396;SDS011;66045;51.622;5.526;2023-02-08T04:27:01;4.07;;;3.00;;
76396;SDS011;66045;51.622;5.526;2023-02-08T04:29:26;3.63;;;2.92;;
76396;SDS011;66045;51.622;5.526;2023-02-08T04:31:52;3.80;;;2.95;;
76396;SDS011;66045;51.622;5.526;2023-02-08T04:34:17;4.70;;;3.15;;
76396;SDS011;66045;51.622;5.526;2023-02-08T04:36:43;4.57;;;2.90;;
76396;SDS011;66045;51.622;5.526;2023-02-08T04:39:08;3.90;;;3.13;;
76396;SDS011;66045;51.622;5.526;2023-02-08T04:41:34;3.92;;;2.85;;
76396;SDS011;66045;51.622;5.526;2023-02-08T04:43:59;4.80;;;3.03;;
76396;SDS011;66045;51.622;5.526;2023-02-08T04:46:24;4.70;;;3.30;;
76396;SDS011;66045;51.622;5.526;2023-02-08T04:48:50;3.65;;;2.70;;
76396;SDS011;66045;51.622;5.526;2023-02-08T04:51:15;6.20;;;3.40;;
76396;SDS011;66045;51.622;5.526;2023-02-08T04:53:40;4.32;;;2.95;;
76396;SDS011;66045;51.622;5.526;2023-02-08T04:56:06;3.53;;;2.67;;
76396;SDS011;66045;51.622;5.526;2023-02-08T04:58:31;4.47;;;3.20;;
76396;SDS011;66045;51.622;5.526;2023-02-08T05:00:56;4.70;;;3.03;;
76396;SDS011;66045;51.622;5.526;2023-02-08T05:03:22;3.85;;;2.78;;
76396;SDS011;66045;51.622;5.526;2023-02-08T05:05:55;5.13;;;3.10;;
76396;SDS011;66045;51.622;5.526;2023-02-08T05:08:21;3.90;;;2.90;;
76396;SDS011;66045;51.622;5.526;2023-02-08T05:10:46;3.92;;;2.92;;
76396;SDS011;66045;51.622;5.526;2023-02-08T05:13:12;3.95;;;3.05;;
76396;SDS011;66045;51.622;5.526;2023-02-08T05:15:37;3.92;;;3.08;;
76396;SDS011;66045;51.622;5.526;2023-02-08T05:18:03;3.88;;;3.35;;
76396;SDS011;66045;51.622;5.526;2023-02-08T05:20:28;4.65;;;3.20;;
76396;SDS011;66045;51.622;5.526;2023-02-08T05:22:54;4.75;;;3.10;;
76396;SDS011;66045;51.622;5.526;2023-02-08T05:25:20;4.80;;;3.03;;
76396;SDS011;66045;51.622;5.526;2023-02-08T05:27:45;4.57;;;2.95;;
76396;SDS011;66045;51.622;5.526;2023-02-08T05:30:10;6.22;;;3.00;;
76396;SDS011;66045;51.622;5.526;2023-02-08T05:32:36;3.60;;;2.90;;
76396;SDS011;66045;51.622;5.526;2023-02-08T05:35:01;5.18;;;3.35;;
76396;SDS011;66045;51.622;5.526;2023-02-08T05:37:27;3.72;;;3.13;;
76396;SDS011;66045;51.622;5.526;2023-02-08T05:39:52;4.50;;;3.25;;
76396;SDS011;66045;51.622;5.526;2023-02-08T05:42:18;3.85;;;2.97;;
76396;SDS011;66045;51.622;5.526;2023-02-08T05:44:43;4.20;;;3.42;;
76396;SDS011;66045;51.622;5.526;2023-02-08T05:47:08;4.38;;;3.25;;
76396;SDS011;66045;51.622;5.526;2023-02-08T05:49:34;4.20;;;3.10;;
76396;SDS011;66045;51.622;5.526;2023-02-08T05:51:59;4.63;;;3.35;;
76396;SDS011;66045;51.622;5.526;2023-02-08T05:54:24;5.10;;;3.70;;
76396;SDS011;66045;51.622;5.526;2023-02-08T05:56:50;4.28;;;3.08;;
76396;SDS011;66045;51.622;5.526;2023-02-08T05:59:15;4.93;;;3.38;;
76396;SDS011;66045;51.622;5.526;2023-02-08T06:01:40;5.13;;;3.03;;
76396;SDS011;66045;51.622;5.526;2023-02-08T06:04:06;5.70;;;3.38;;
76396;SDS011;66045;51.622;5.526;2023-02-08T06:06:31;5.47;;;3.50;;
76396;SDS011;66045;51.622;5.526;2023-02-08T06:08:56;4.10;;;3.30;;
76396;SDS011;66045;51.622;5.526;2023-02-08T06:11:22;4.55;;;3.20;;
76396;SDS011;66045;51.622;5.526;2023-02-08T06:13:47;5.95;;;3.55;;
76396;SDS011;66045;51.622;5.526;2023-02-08T06:16:13;4.68;;;3.40;;
76396;SDS011;66045;51.622;5.526;2023-02-08T06:18:39;3.83;;;2.90;;
76396;SDS011;66045;51.622;5.526;2023-02-08T06:21:05;4.72;;;3.35;;
76396;SDS011;66045;51.622;5.526;2023-02-08T06:23:30;4.97;;;3.70;;
76396;SDS011;66045;51.622;5.526;2023-02-08T06:25:56;5.35;;;3.90;;
76396;SDS011;66045;51.622;5.526;2023-02-08T06:28:21;4.30;;;3.20;;
76396;SDS011;66045;51.622;5.526;2023-02-08T06:30:51;4.95;;;3.55;;
76396;SDS011;66045;51.622;5.526;2023-02-08T06:33:18;4.90;;;3.58;;
76396;SDS011;66045;51.622;5.526;2023-02-08T06:35:44;4.75;;;3.60;;
76396;SDS011;66045;51.622;5.526;2023-02-08T06:38:10;4.05;;;3.22;;
76396;SDS011;66045;51.622;5.526;2023-02-08T06:40:36;4.72;;;3.45;;
76396;SDS011;66045;51.622;5.526;2023-02-08T06:43:01;4.88;;;3.50;;
76396;SDS011;66045;51.622;5.526;2023-02-08T06:45:27;4.38;;;3.50;;
76396;SDS011;66045;51.622;5.526;2023-02-08T06:47:52;5.35;;;3.72;;
76396;SDS011;66045;51.622;5.526;2023-02-08T06:50:17;5.63;;;3.35;;
76396;SDS011;66045;51.622;5.526;2023-02-08T06:52:43;4.68;;;3.13;;
76396;SDS011;66045;51.622;5.526;2023-02-08T06:55:08;5.53;;;3.58;;
76396;SDS011;66045;51.622;5.526;2023-02-08T06:57:33;5.10;;;3.67;;
76396;SDS011;66045;51.622;5.526;2023-02-08T06:59:59;5.63;;;3.67;;
76396;SDS011;66045;51.622;5.526;2023-02-08T07:02:24;4.25;;;3.42;;
76396;SDS011;66045;51.622;5.526;2023-02-08T07:04:49;4.95;;;3.65;;
76396;SDS011;66045;51.622;5.526;2023-02-08T07:07:15;4.07;;;3.10;;
76396;SDS011;66045;51.622;5.526;2023-02-08T07:09:41;4.45;;;3.20;;
76396;SDS011;66045;51.622;5.526;2023-02-08T07:12:07;4.22;;;3.55;;
76396;SDS011;66045;51.622;5.526;2023-02-08T07:14:34;5.80;;;3.80;;
76396;SDS011;66045;51.622;5.526;2023-02-08T07:17:01;6.13;;;4.00;;
76396;SDS011;66045;51.622;5.526;2023-02-08T07:19:26;5.03;;;3.20;;
76396;SDS011;66045;51.622;5.526;2023-02-08T07:21:52;4.00;;;3.05;;
76396;SDS011;66045;51.622;5.526;2023-02-08T07:24:18;4.93;;;3.40;;
76396;SDS011;66045;51.622;5.526;2023-02-08T07:26:43;4.32;;;3.47;;
76396;SDS011;66045;51.622;5.526;2023-02-08T07:29:09;4.32;;;3.30;;
76396;SDS011;66045;51.622;5.526;2023-02-08T07:31:34;4.63;;;3.40;;
76396;SDS011;66045;51.622;5.526;2023-02-08T07:33:59;4.43;;;3.30;;
76396;SDS011;66045;51.622;5.526;2023-02-08T07:36:25;4.10;;;2.97;;
76396;SDS011;66045;51.622;5.526;2023-02-08T07:38:50;3.85;;;3.20;;
76396;SDS011;66045;51.622;5.526;2023-02-08T07:41:15;4.97;;;3.53;;
76396;SDS011;66045;51.622;5.526;2023-02-08T07:43:41;5.25;;;3.75;;
76396;SDS011;66045;51.622;5.526;2023-02-08T07:46:08;4.20;;;3.28;;
76396;SDS011;66045;51.622;5.526;2023-02-08T07:48:40;3.80;;;2.92;;
76396;SDS011;66045;51.622;5.526;2023-02-08T07:51:06;4.72;;;3.22;;
76396;SDS011;66045;51.622;5.526;2023-02-08T07:53:33;4.20;;;3.20;;
76396;SDS011;66045;51.622;5.526;2023-02-08T07:55:58;5.65;;;3.20;;
76396;SDS011;66045;51.622;5.526;2023-02-08T07:58:24;5.72;;;3.47;;
76396;SDS011;66045;51.622;5.526;2023-02-08T08:00:50;3.92;;;3.30;;
76396;SDS011;66045;51.622;5.526;2023-02-08T08:03:16;4.82;;;2.97;;
76396;SDS011;66045;51.622;5.526;2023-02-08T08:05:41;4.88;;;3.20;;
76396;SDS011;66045;51.622;5.526;2023-02-08T08:08:08;5.10;;;3.22;;
76396;SDS011;66045;51.622;5.526;2023-02-08T08:10:34;4.55;;;3.28;;
76396;SDS011;66045;51.622;5.526;2023-02-08T08:12:59;3.63;;;3.03;;
76396;SDS011;66045;51.622;5.526;2023-02-08T08:15:25;4.40;;;3.20;;
76396;SDS011;66045;51.622;5.526;2023-02-08T08:17:51;4.97;;;2.95;;
76396;SDS011;66045;51.622;5.526;2023-02-08T08:20:17;4.00;;;3.20;;
76396;SDS011;66045;51.622;5.526;2023-02-08T08:22:42;5.35;;;3.15;;
76396;SDS011;66045;51.622;5.526;2023-02-08T08:25:07;4.03;;;3.33;;
76396;SDS011;66045;51.622;5.526;2023-02-08T08:27:33;3.58;;;3.03;;
76396;SDS011;66045;51.622;5.526;2023-02-08T08:29:59;4.57;;;3.33;;
76396;SDS011;66045;51.622;5.526;2023-02-08T08:32:25;4.78;;;3.30;;
76396;SDS011;66045;51.622;5.526;2023-02-08T08:34:50;4.38;;;3.33;;
76396;SDS011;66045;51.622;5.526;2023-02-08T08:37:15;5.32;;;3.40;;
76396;SDS011;66045;51.622;5.526;2023-02-08T08:39:41;5.50;;;3.50;;
76396;SDS011;66045;51.622;5.526;2023-02-08T08:42:06;4.72;;;3.10;;
76396;SDS011;66045;51.622;5.526;2023-02-08T08:44:31;4.50;;;3.22;;
76396;SDS011;66045;51.622;5.526;2023-02-08T08:46:57;3.63;;;3.05;;
76396;SDS011;66045;51.622;5.526;2023-02-08T08:49:24;6.63;;;3.33;;
76396;SDS011;66045;51.622;5.526;2023-02-08T08:51:51;4.70;;;3.30;;
76396;SDS011;66045;51.622;5.526;2023-02-08T08:54:17;4.22;;;3.25;;
76396;SDS011;66045;51.622;5.526;2023-02-08T08:56:43;6.35;;;3.60;;
76396;SDS011;66045;51.622;5.526;2023-02-08T08:59:09;4.50;;;3.40;;
76396;SDS011;66045;51.622;5.526;2023-02-08T09:01:34;5.65;;;3.45;;
76396;SDS011;66045;51.622;5.526;2023-02-08T09:04:00;4.15;;;3.10;;
76396;SDS011;66045;51.622;5.526;2023-02-08T09:06:25;5.53;;;3.63;;
76396;SDS011;66045;51.622;5.526;2023-02-08T09:08:51;5.03;;;3.40;;
76396;SDS011;66045;51.622;5.526;2023-02-08T09:11:16;4.63;;;3.70;;
76396;SDS011;66045;51.622;5.526;2023-02-08T09:13:42;5.35;;;3.78;;
76396;SDS011;66045;51.622;5.526;2023-02-08T09:16:12;6.47;;;3.70;;
76396;SDS011;66045;51.622;5.526;2023-02-08T09:18:39;5.25;;;3.50;;
76396;SDS011;66045;51.622;5.526;2023-02-08T09:21:09;6.80;;;3.67;;
76396;SDS011;66045;51.622;5.526;2023-02-08T09:23:39;5.00;;;3.35;;
76396;SDS011;66045;51.622;5.526;2023-02-08T09:26:05;5.03;;;3.72;;
76396;SDS011;66045;51.622;5.526;2023-02-08T09:28:32;5.45;;;3.50;;
76396;SDS011;66045;51.622;5.526;2023-02-08T09:30:58;5.05;;;3.40;;
76396;SDS011;66045;51.622;5.526;2023-02-08T09:33:25;6.47;;;3.88;;
76396;SDS011;66045;51.622;5.526;2023-02-08T09:35:51;5.22;;;3.75;;
76396;SDS011;66045;51.622;5.526;2023-02-08T09:38:17;5.72;;;3.90;;
76396;SDS011;66045;51.622;5.526;2023-02-08T09:40:53;5.22;;;3.78;;
76396;SDS011;66045;51.622;5.526;2023-02-08T09:43:31;5.85;;;4.00;;
76396;SDS011;66045;51.622;5.526;2023-02-08T09:46:25;4.78;;;3.78;;
76396;SDS011;66045;51.622;5.526;2023-02-08T09:48:54;4.93;;;3.90;;
76396;SDS011;66045;51.622;5.526;2023-02-08T09:51:38;6.72;;;3.58;;
76396;SDS011;66045;51.622;5.526;2023-02-08T09:54:09;5.82;;;3.75;;
76396;SDS011;66045;51.622;5.526;2023-02-08T09:56:42;4.15;;;3.38;;
76396;SDS011;66045;51.622;5.526;2023-02-08T09:59:12;5.43;;;3.72;;
76396;SDS011;66045;51.622;5.526;2023-02-08T10:01:41;5.90;;;3.65;;
76396;SDS011;66045;51.622;5.526;2023-02-08T10:04:23;8.15;;;3.50;;
76396;SDS011;66045;51.622;5.526;2023-02-08T10:06:54;6.32;;;3.47;;
76396;SDS011;66045;51.622;5.526;2023-02-08T10:09:21;7.63;;;4.07;;
76396;SDS011;66045;51.622;5.526;2023-02-08T10:17:01;6.60;;;3.88;;
76396;SDS011;66045;51.622;5.526;2023-02-08T10:31:18;5.65;;;4.28;;
76396;SDS011;66045;51.622;5.526;2023-02-08T10:36:53;7.43;;;3.88;;
76396;SDS011;66045;51.622;5.526;2023-02-08T10:39:23;7.10;;;4.07;;
76396;SDS011;66045;51.622;5.526;2023-02-08T10:41:53;8.13;;;4.30;;
76396;SDS011;66045;51.622;5.526;2023-02-08T10:47:02;7.18;;;4.28;;
76396;SDS011;66045;51.622;5.526;2023-02-08T10:49:38;7.90;;;4.00;;
76396;SDS011;66045;51.622;5.526;2023-02-08T10:52:12;7.63;;;4.40;;
76396;SDS011;66045;51.622;5.526;2023-02-08T10:54:37;7.38;;;3.95;;
76396;SDS011;66045;51.622;5.526;2023-02-08T10:57:04;6.15;;;4.15;;
76396;SDS011;66045;51.622;5.526;2023-02-08T11:02:21;8.50;;;4.53;;
76396;SDS011;66045;51.622;5.526;2023-02-08T11:07:33;6.65;;;3.70;;
76396;SDS011;66045;51.622;5.526;2023-02-08T11:13:03;5.32;;;3.70;;
76396;SDS011;66045;51.622;5.526;2023-02-08T11:18:03;6.20;;;3.95;;
76396;SDS011;66045;51.622;5.526;2023-02-08T11:20:35;5.65;;;3.65;;
76396;SDS011;66045;51.622;5.526;2023-02-08T11:23:04;6.18;;;3.65;;
76396;SDS011;66045;51.622;5.526;2023-02-08T11:25:43;7.25;;;4.45;;
76396;SDS011;66045;51.622;5.526;2023-02-08T11:28:20;7.00;;;4.00;;
76396;SDS011;66045;51.622;5.526;2023-02-08T11:30:58;5.45;;;3.45;;
76396;SDS011;66045;51.622;5.526;2023-02-08T11:33:26;8.25;;;4.20;;
76396;SDS011;66045;51.622;5.526;2023-02-08T11:36:11;5.43;;;3.80;;
76396;SDS011;66045;51.622;5.526;2023-02-08T11:38:39;6.93;;;4.15;;
76396;SDS011;66045;51.622;5.526;2023-02-08T11:41:12;7.63;;;3.97;;
76396;SDS011;66045;51.622;5.526;2023-02-08T11:43:40;5.30;;;3.88;;
76396;SDS011;66045;51.622;5.526;2023-02-08T11:46:06;6.30;;;4.28;;
76396;SDS011;66045;51.622;5.526;2023-02-08T11:48:48;5.57;;;3.75;;
76396;SDS011;66045;51.622;5.526;2023-02-08T11:51:25;8.38;;;4.45;;
76396;SDS011;66045;51.622;5.526;2023-02-08T11:53:53;6.15;;;4.22;;
76396;SDS011;66045;51.622;5.526;2023-02-08T11:56:20;7.30;;;3.70;;
76396;SDS011;66045;51.622;5.526;2023-02-08T12:01:37;6.72;;;4.20;;
76396;SDS011;66045;51.622;5.526;2023-02-08T12:04:05;7.05;;;3.70;;
76396;SDS011;66045;51.622;5.526;2023-02-08T12:09:18;6.05;;;4.20;;
76396;SDS011;66045;51.622;5.526;2023-02-08T12:28:24;6.05;;;3.95;;
76396;SDS011;66045;51.622;5.526;2023-02-08T12:33:57;4.97;;;3.75;;
76396;SDS011;66045;51.622;5.526;2023-02-08T12:39:16;6.13;;;3.90;;
76396;SDS011;66045;51.622;5.526;2023-02-08T12:42:45;6.82;;;3.70;;
76396;SDS011;66045;51.622;5.526;2023-02-08T12:50:50;5.05;;;3.70;;
76396;SDS011;66045;51.622;5.526;2023-02-08T12:53:21;6.03;;;3.42;;
76396;SDS011;66045;51.622;5.526;2023-02-08T12:55:54;5.93;;;3.95;;
76396;SDS011;66045;51.622;5.526;2023-02-08T12:58:30;5.40;;;3.75;;
76396;SDS011;66045;51.622;5.526;2023-02-08T13:01:04;5.10;;;3.67;;
76396;SDS011;66045;51.622;5.526;2023-02-08T13:06:22;6.38;;;3.80;;
76396;SDS011;66045;51.622;5.526;2023-02-08T13:09:02;5.38;;;3.40;;
76396;SDS011;66045;51.622;5.526;2023-02-08T13:12:01;6.03;;;3.45;;
76396;SDS011;66045;51.622;5.526;2023-02-08T13:14:31;4.80;;;3.40;;
76396;SDS011;66045;51.622;5.526;2023-02-08T13:17:03;5.45;;;3.60;;
76396;SDS011;66045;51.622;5.526;2023-02-08T13:19:48;6.57;;;3.80;;
76396;SDS011;66045;51.622;5.526;2023-02-08T13:22:18;5.50;;;3.58;;
76396;SDS011;66045;51.622;5.526;2023-02-08T13:24:45;5.72;;;3.75;;
76396;SDS011;66045;51.622;5.526;2023-02-08T13:27:16;6.10;;;3.80;;
76396;SDS011;66045;51.622;5.526;2023-02-08T13:29:44;3.78;;;2.90;;
76396;SDS011;66045;51.622;5.526;2023-02-08T13:32:16;5.55;;;3.33;;
76396;SDS011;66045;51.622;5.526;2023-02-08T13:35:01;6.78;;;3.47;;
76396;SDS011;66045;51.622;5.526;2023-02-08T13:37:36;4.75;;;3.35;;
76396;SDS011;66045;51.622;5.526;2023-02-08T13:42:50;5.18;;;3.40;;
76396;SDS011;66045;51.622;5.526;2023-02-08T13:45:24;6.43;;;3.60;;
76396;SDS011;66045;51.622;5.526;2023-02-08T13:47:58;14.00;;;3.72;;
76396;SDS011;66045;51.622;5.526;2023-02-08T13:52:51;15.35;;;4.05;;
76396;SDS011;66045;51.622;5.526;2023-02-08T13:58:03;8.32;;;4.07;;
76396;SDS011;66045;51.622;5.526;2023-02-08T14:00:32;8.90;;;3.78;;
76396;SDS011;66045;51.622;5.526;2023-02-08T14:03:18;11.07;;;3.58;;
76396;SDS011;66045;51.622;5.526;2023-02-08T14:05:50;9.05;;;3.60;;
76396;SDS011;66045;51.622;5.526;2023-02-08T14:08:23;7.95;;;3.45;;
76396;SDS011;66045;51.622;5.526;2023-02-08T14:13:48;6.22;;;3.20;;
76396;SDS011;66045;51.622;5.526;2023-02-08T14:16:31;5.78;;;3.55;;
76396;SDS011;66045;51.622;5.526;2023-02-08T14:19:00;8.32;;;3.33;;
76396;SDS011;66045;51.622;5.526;2023-02-08T14:24:07;4.28;;;3.25;;
76396;SDS011;66045;51.622;5.526;2023-02-08T14:26:46;6.50;;;3.00;;
76396;SDS011;66045;51.622;5.526;2023-02-08T14:29:19;6.03;;;3.08;;
76396;SDS011;66045;51.622;5.526;2023-02-08T14:31:47;8.70;;;3.35;;
76396;SDS011;66045;51.622;5.526;2023-02-08T14:36:57;6.00;;;3.38;;
76396;SDS011;66045;51.622;5.526;2023-02-08T14:39:35;4.57;;;3.22;;
76396;SDS011;66045;51.622;5.526;2023-02-08T14:42:04;5.57;;;2.95;;
76396;SDS011;66045;51.622;5.526;2023-02-08T14:47:02;5.85;;;3.00;;
76396;SDS011;66045;51.622;5.526;2023-02-08T14:49:47;7.10;;;2.95;;
76396;SDS011;66045;51.622;5.526;2023-02-08T14:52:20;5.90;;;3.25;;
76396;SDS011;66045;51.622;5.526;2023-02-08T14:54:49;5.55;;;3.05;;
76396;SDS011;66045;51.622;5.526;2023-02-08T14:57:28;5.85;;;3.22;;
76396;SDS011;66045;51.622;5.526;2023-02-08T14:59:58;7.00;;;2.97;;
76396;SDS011;66045;51.622;5.526;2023-02-08T15:02:26;5.32;;;3.00;;
76396;SDS011;66045;51.622;5.526;2023-02-08T15:04:56;4.88;;;2.72;;
76396;SDS011;66045;51.622;5.526;2023-02-08T15:10:10;4.35;;;2.92;;
76396;SDS011;66045;51.622;5.526;2023-02-08T15:12:38;6.88;;;3.00;;
76396;SDS011;66045;51.622;5.526;2023-02-08T15:15:05;4.10;;;2.97;;
76396;SDS011;66045;51.622;5.526;2023-02-08T15:17:44;6.03;;;2.90;;
76396;SDS011;66045;51.622;5.526;2023-02-08T15:20:32;5.10;;;3.13;;
76396;SDS011;66045;51.622;5.526;2023-02-08T15:23:17;5.80;;;2.70;;
76396;SDS011;66045;51.622;5.526;2023-02-08T15:25:53;5.65;;;3.08;;
76396;SDS011;66045;51.622;5.526;2023-02-08T15:28:21;6.07;;;2.88;;
76396;SDS011;66045;51.622;5.526;2023-02-08T15:33:23;6.22;;;3.15;;
76396;SDS011;66045;51.622;5.526;2023-02-08T15:35:59;6.55;;;2.90;;
76396;SDS011;66045;51.622;5.526;2023-02-08T15:38:26;5.55;;;2.47;;
76396;SDS011;66045;51.622;5.526;2023-02-08T15:41:00;4.68;;;2.78;;
76396;SDS011;66045;51.622;5.526;2023-02-08T15:43:49;4.40;;;3.10;;
76396;SDS011;66045;51.622;5.526;2023-02-08T15:46:21;4.55;;;2.50;;
76396;SDS011;66045;51.622;5.526;2023-02-08T15:48:49;8.20;;;3.00;;
76396;SDS011;66045;51.622;5.526;2023-02-08T15:51:16;5.70;;;2.67;;
76396;SDS011;66045;51.622;5.526;2023-02-08T15:53:48;5.00;;;2.85;;
76396;SDS011;66045;51.622;5.526;2023-02-08T15:56:20;7.93;;;3.28;;
76396;SDS011;66045;51.622;5.526;2023-02-08T15:58:53;7.82;;;3.13;;
76396;SDS011;66045;51.622;5.526;2023-02-08T16:01:21;5.30;;;2.60;;
76396;SDS011;66045;51.622;5.526;2023-02-08T16:03:48;6.50;;;2.65;;
76396;SDS011;66045;51.622;5.526;2023-02-08T16:06:24;5.20;;;2.85;;
76396;SDS011;66045;51.622;5.526;2023-02-08T16:08:53;4.95;;;2.90;;
76396;SDS011;66045;51.622;5.526;2023-02-08T16:13:59;4.88;;;2.97;;
76396;SDS011;66045;51.622;5.526;2023-02-08T16:16:43;4.75;;;2.55;;
76396;SDS011;66045;51.622;5.526;2023-02-08T16:19:27;3.92;;;2.58;;
76396;SDS011;66045;51.622;5.526;2023-02-08T16:21:55;6.47;;;2.67;;
76396;SDS011;66045;51.622;5.526;2023-02-08T16:24:39;5.45;;;2.65;;
76396;SDS011;66045;51.622;5.526;2023-02-08T16:27:05;3.75;;;2.60;;
76396;SDS011;66045;51.622;5.526;2023-02-08T16:29:38;5.88;;;2.80;;
76396;SDS011;66045;51.622;5.526;2023-02-08T16:34:42;3.72;;;2.60;;
76396;SDS011;66045;51.622;5.526;2023-02-08T16:37:18;4.93;;;2.63;;
76396;SDS011;66045;51.622;5.526;2023-02-08T16:42:22;3.40;;;2.55;;
76396;SDS011;66045;51.622;5.526;2023-02-08T16:45:01;4.72;;;2.63;;
76396;SDS011;66045;51.622;5.526;2023-02-08T16:50:05;6.90;;;2.60;;
76396;SDS011;66045;51.622;5.526;2023-02-08T16:52:32;6.03;;;2.72;;
76396;SDS011;66045;51.622;5.526;2023-02-08T16:54:58;5.00;;;2.92;;
76396;SDS011;66045;51.622;5.526;2023-02-08T16:57:36;5.07;;;2.75;;
76396;SDS011;66045;51.622;5.526;2023-02-08T17:00:11;6.90;;;2.50;;
76396;SDS011;66045;51.622;5.526;2023-02-08T17:02:38;7.50;;;2.90;;
76396;SDS011;66045;51.622;5.526;2023-02-08T17:05:03;5.60;;;2.75;;
76396;SDS011;66045;51.622;5.526;2023-02-08T17:07:29;3.85;;;2.75;;
76396;SDS011;66045;51.622;5.526;2023-02-08T17:09:56;4.97;;;2.65;;
76396;SDS011;66045;51.622;5.526;2023-02-08T17:12:22;4.15;;;2.60;;
76396;SDS011;66045;51.622;5.526;2023-02-08T17:14:48;7.20;;;2.80;;
76396;SDS011;66045;51.622;5.526;2023-02-08T17:17:13;4.53;;;2.65;;
76396;SDS011;66045;51.622;5.526;2023-02-08T17:19:39;4.65;;;2.40;;
76396;SDS011;66045;51.622;5.526;2023-02-08T17:22:04;6.40;;;2.65;;
76396;SDS011;66045;51.622;5.526;2023-02-08T17:24:29;5.95;;;3.22;;
76396;SDS011;66045;51.622;5.526;2023-02-08T17:26:55;6.32;;;2.70;;